createdAt,value
2023-02-08T00:01:55.341Z,-0.86
2023-02-08T00:04:21.682Z,-0.93
2023-02-08T00:06:48.086Z,-0.89
2023-02-08T00:09:14.510Z,-0.87
2023-02-08T00:11:40.887Z,-0.93
2023-02-08T00:14:08.852Z,-0.96
2023-02-08T00:16:35.459Z,-0.93
2023-02-08T00:19:04.645Z,-0.89
2023-02-08T00:21:31.179Z,-0.90
2023-02-08T00:23:57.588Z,-0.89
2023-02-08T00:26:24.042Z,-0.87
2023-02-08T00:28:50.583Z,-0.87
2023-02-08T00:31:17.061Z,-1.00
2023-02-08T00:33:43.622Z,-1.21
2023-02-08T00:36:11.616Z,-1.21
2023-02-08T00:38:38.229Z,-1.26
2023-02-08T00:41:05.260Z,-1.13
2023-02-08T00:43:31.901Z,-1.03
2023-02-08T00:45:59.792Z,-1.08
2023-02-08T00:48:28.768Z,-1.10
2023-02-08T00:51:02.427Z,-1.01
2023-02-08T00:53:29.401Z,-1.11
2023-02-08T00:55:56.537Z,-1.08
2023-02-08T01:00:37.539Z,-0.80
2023-02-08T01:03:04.283Z,-0.93
2023-02-08T01:05:30.680Z,-0.96
2023-02-08T01:07:58.119Z,-1.04
2023-02-08T01:10:24.548Z,-1.14
2023-02-08T01:12:51.044Z,-1.07
2023-02-08T01:15:17.530Z,-1.17
2023-02-08T01:17:44.095Z,-1.20
2023-02-08T01:20:11.531Z,-1.16
2023-02-08T01:22:37.920Z,-1.11
2023-02-08T01:25:05.666Z,-1.04
2023-02-08T01:27:32.065Z,-1.20
2023-02-08T01:29:58.934Z,-1.33
2023-02-08T01:32:25.353Z,-1.35
2023-02-08T01:34:51.720Z,-1.13
2023-02-08T01:37:18.099Z,-1.27
2023-02-08T01:39:44.608Z,-1.31
2023-02-08T01:42:14.820Z,-1.30
2023-02-08T01:45:23.268Z,-1.24
2023-02-08T01:47:58.571Z,-1.27
2023-02-08T01:50:32.018Z,-1.47
2023-02-08T01:52:59.723Z,-1.59
2023-02-08T01:55:31.791Z,-1.75
2023-02-08T01:58:02.191Z,-1.62
2023-02-08T02:00:28.879Z,-1.44
2023-02-08T02:02:57.700Z,-1.28
2023-02-08T02:05:28.234Z,-1.16
2023-02-08T02:07:57.397Z,-1.08
2023-02-08T02:10:30.525Z,-1.03
2023-02-08T02:13:02.094Z,-1.08
2023-02-08T02:15:28.493Z,-1.00
2023-02-08T02:17:55.271Z,-0.95
2023-02-08T02:20:59.575Z,-0.92
2023-02-08T02:23:49.547Z,-0.90
2023-02-08T02:26:43.619Z,-0.90
2023-02-08T02:29:16.044Z,-1.07
2023-02-08T02:31:51.908Z,-1.01
2023-02-08T02:34:30.429Z,-1.00
2023-02-08T02:37:23.285Z,-1.16
2023-02-08T02:40:08.911Z,-1.34
2023-02-08T02:42:59.448Z,-1.23
2023-02-08T02:45:35.077Z,-1.44
2023-02-08T02:48:17.205Z,-1.35
2023-02-08T02:50:48.392Z,-1.28
2023-02-08T02:53:20.595Z,-1.33
2023-02-08T02:55:53.777Z,-1.43
2023-02-08T02:58:22.648Z,-1.55
2023-02-08T03:00:54.669Z,-1.61
2023-02-08T03:03:25.359Z,-1.44
2023-02-08T03:05:54.560Z,-1.54
2023-02-08T03:08:46.960Z,-1.59
2023-02-08T03:11:25.790Z,-1.55
2023-02-08T03:14:08.630Z,-1.50
2023-02-08T03:16:35.042Z,-1.40
2023-02-08T03:19:40.247Z,-1.51
2023-02-08T03:22:09.672Z,-1.52
2023-02-08T03:24:39.088Z,-1.54
2023-02-08T03:27:32.046Z,-1.64
2023-02-08T03:30:17.248Z,-1.56
2023-02-08T03:32:50.553Z,-1.66
2023-02-08T03:35:22.749Z,-1.79
2023-02-08T03:38:05.688Z,-1.89
2023-02-08T03:40:37.612Z,-1.96
2023-02-08T03:43:11.496Z,-1.96
2023-02-08T03:45:43.303Z,-1.97
2023-02-08T03:48:13.880Z,-1.87
2023-02-08T03:50:44.245Z,-1.89
2023-02-08T03:53:11.033Z,-1.86
2023-02-08T03:55:39.225Z,-1.86
2023-02-08T03:58:16.122Z,-1.90
2023-02-08T04:00:49.187Z,-1.81
2023-02-08T04:03:28.468Z,-1.83
2023-02-08T04:05:55.578Z,-1.86
2023-02-08T04:08:22.223Z,-1.87
2023-02-08T04:10:48.955Z,-1.92
2023-02-08T04:13:15.582Z,-2.07
2023-02-08T04:15:42.037Z,-2.03
2023-02-08T04:18:08.918Z,-2.13
2023-02-08T04:20:35.409Z,-2.22
2023-02-08T04:23:01.981Z,-2.23
2023-02-08T04:25:28.444Z,-2.32
2023-02-08T04:27:54.968Z,-2.27
2023-02-08T04:30:21.420Z,-2.13
2023-02-08T04:32:47.888Z,-1.97
2023-02-08T04:35:14.384Z,-2.03
2023-02-08T04:37:40.762Z,-2.17
2023-02-08T04:40:07.956Z,-2.23
2023-02-08T04:42:34.978Z,-2.23
2023-02-08T04:45:01.468Z,-2.26
2023-02-08T04:47:27.871Z,-2.26
2023-02-08T04:49:54.281Z,-2.17
2023-02-08T04:52:20.748Z,-2.14
2023-02-08T04:54:47.176Z,-1.85
2023-02-08T04:57:14.506Z,-1.93
2023-02-08T04:59:41.277Z,-1.96
2023-02-08T05:02:07.743Z,-1.86
2023-02-08T05:04:34.318Z,-1.86
2023-02-08T05:07:00.929Z,-1.87
2023-02-08T05:09:27.467Z,-1.90
2023-02-08T05:11:53.902Z,-1.95
2023-02-08T05:14:20.322Z,-1.96
2023-02-08T05:16:46.758Z,-2.02
2023-02-08T05:19:13.509Z,-2.10
2023-02-08T05:21:39.999Z,-2.09
2023-02-08T05:24:07.332Z,-2.06
2023-02-08T05:26:33.704Z,-2.22
2023-02-08T05:29:00.130Z,-2.30
2023-02-08T05:31:26.656Z,-2.41
2023-02-08T05:33:53.197Z,-2.44
2023-02-08T05:36:21.170Z,-2.37
2023-02-08T05:38:47.620Z,-2.24
2023-02-08T05:41:14.114Z,-2.32
2023-02-08T05:43:40.535Z,-2.29
2023-02-08T05:46:07.457Z,-2.27
2023-02-08T05:48:34.336Z,-2.30
2023-02-08T05:51:00.869Z,-2.26
2023-02-08T05:53:27.665Z,-2.18
2023-02-08T05:55:54.089Z,-2.32
2023-02-08T05:58:20.465Z,-2.36
2023-02-08T06:00:47.099Z,-2.30
2023-02-08T06:03:13.643Z,-2.26
2023-02-08T06:05:40.754Z,-2.23
2023-02-08T06:08:08.130Z,-2.38
2023-02-08T06:10:34.877Z,-2.40
2023-02-08T06:13:01.644Z,-2.50
2023-02-08T06:15:28.569Z,-2.54
2023-02-08T06:17:55.440Z,-2.57
2023-02-08T06:20:21.876Z,-2.50
2023-02-08T06:22:48.298Z,-2.53
2023-02-08T06:25:15.038Z,-2.44
2023-02-08T06:27:41.417Z,-2.43
2023-02-08T06:30:08.306Z,-2.48
2023-02-08T06:32:34.845Z,-2.53
2023-02-08T06:35:01.519Z,-2.50
2023-02-08T06:37:27.935Z,-2.44
2023-02-08T06:39:54.451Z,-2.38
2023-02-08T06:42:21.317Z,-2.37
2023-02-08T06:44:55.145Z,-2.20
2023-02-08T06:47:26.460Z,-2.22
2023-02-08T06:49:53.396Z,-2.22
2023-02-08T06:52:20.727Z,-2.38
2023-02-08T06:54:50.425Z,-2.18
2023-02-08T06:57:16.841Z,-2.24
2023-02-08T06:59:43.245Z,-2.20
2023-02-08T07:02:15.574Z,-2.32
2023-02-08T07:04:42.389Z,-2.16
2023-02-08T07:07:08.820Z,-2.22
2023-02-08T07:09:36.340Z,-2.13
2023-02-08T07:12:05.243Z,-2.13
2023-02-08T07:14:37.074Z,-2.16
2023-02-08T07:17:03.823Z,-2.05
2023-02-08T07:19:30.727Z,-2.06
2023-02-08T07:22:03.022Z,-2.00
2023-02-08T07:24:29.473Z,-2.00
2023-02-08T07:26:56.116Z,-1.92
2023-02-08T07:32:36.236Z,-1.08
2023-02-08T07:35:02.652Z,-0.62
2023-02-08T07:37:29.050Z,-0.37
2023-02-08T07:39:56.386Z,0.27
2023-02-08T07:42:22.907Z,0.73
2023-02-08T07:44:50.661Z,1.06
2023-02-08T07:47:17.415Z,1.37
2023-02-08T07:49:43.825Z,1.46
2023-02-08T07:52:11.557Z,1.68
2023-02-08T07:54:37.957Z,1.68
2023-02-08T07:57:04.361Z,1.20
2023-02-08T07:59:30.819Z,1.81
2023-02-08T08:01:57.568Z,1.67
2023-02-08T08:04:24.302Z,1.57
2023-02-08T08:06:51.574Z,1.06
2023-02-08T08:09:18.056Z,0.79
2023-02-08T08:11:44.390Z,0.62
2023-02-08T08:14:10.776Z,1.03
2023-02-08T08:16:37.243Z,1.36
2023-02-08T08:19:03.722Z,1.62
2023-02-08T08:21:30.112Z,1.62
2023-02-08T08:23:56.600Z,1.85
2023-02-08T08:26:24.337Z,2.02
2023-02-08T08:28:50.963Z,3.15
2023-02-08T08:31:20.469Z,3.22
2023-02-08T08:33:47.933Z,2.57
2023-02-08T08:36:15.102Z,2.71
2023-02-08T08:38:41.784Z,3.28
2023-02-08T08:41:14.664Z,3.18
2023-02-08T08:43:41.299Z,3.19
2023-02-08T08:46:08.114Z,3.63
2023-02-08T08:48:35.688Z,3.67
2023-02-08T08:51:02.640Z,4.14
2023-02-08T08:53:29.005Z,4.98
2023-02-08T08:55:55.533Z,4.07
2023-02-08T08:58:22.041Z,5.41
2023-02-08T09:00:48.925Z,6.35
2023-02-08T09:03:15.357Z,5.60
2023-02-08T09:05:41.763Z,6.71
2023-02-08T09:08:08.180Z,6.69
2023-02-08T09:10:34.553Z,5.35
2023-02-08T09:13:01.060Z,5.77
2023-02-08T09:15:27.410Z,5.99
2023-02-08T09:17:53.827Z,6.72
2023-02-08T09:20:20.322Z,6.07
2023-02-08T09:22:46.694Z,5.42
2023-02-08T09:25:13.085Z,6.55
2023-02-08T09:27:40.494Z,6.92
2023-02-08T09:30:07.432Z,7.37
2023-02-08T09:32:34.633Z,8.65
2023-02-08T09:35:02.237Z,7.71
2023-02-08T09:37:30.160Z,7.48
2023-02-08T09:39:58.570Z,7.07
2023-02-08T09:42:34.128Z,6.92
2023-02-08T09:45:26.762Z,7.54
2023-02-08T09:48:09.208Z,7.14
2023-02-08T09:50:46.378Z,8.25
2023-02-08T09:53:19.523Z,8.68
2023-02-08T09:55:49.706Z,9.52
2023-02-08T09:58:40.179Z,9.31
2023-02-08T10:01:21.796Z,8.64
2023-02-08T10:03:50.452Z,9.71
2023-02-08T10:06:19.521Z,8.39
2023-02-08T10:08:49.987Z,8.28
2023-02-08T10:11:44.044Z,7.84
2023-02-08T10:14:35.046Z,9.23
2023-02-08T10:17:25.243Z,9.19
2023-02-08T10:20:00.661Z,9.53
2023-02-08T10:22:38.917Z,10.08
2023-02-08T10:25:10.988Z,10.08
2023-02-08T10:27:58.314Z,9.83
2023-02-08T10:30:48.132Z,10.00
2023-02-08T10:33:32.310Z,11.41
2023-02-08T10:35:58.803Z,10.14
2023-02-08T10:38:45.919Z,10.87
2023-02-08T10:41:20.626Z,12.48
2023-02-08T10:44:21.868Z,12.17
2023-02-08T10:46:59.136Z,10.53
2023-02-08T10:49:42.599Z,11.30
2023-02-08T10:52:09.740Z,10.44
2023-02-08T10:54:36.439Z,11.72
2023-02-08T10:57:05.655Z,10.10
2023-02-08T10:59:49.464Z,10.24
2023-02-08T11:02:26.661Z,10.24
2023-02-08T11:05:06.420Z,11.01
2023-02-08T11:07:36.226Z,10.60
2023-02-08T11:10:23.460Z,10.83
2023-02-08T11:13:15.388Z,8.70
2023-02-08T11:15:48.672Z,9.10
2023-02-08T11:18:26.514Z,9.91
2023-02-08T11:20:58.786Z,8.87
2023-02-08T11:23:33.691Z,8.91
2023-02-08T11:26:20.913Z,8.59
2023-02-08T11:29:15.999Z,9.33
2023-02-08T11:32:02.659Z,9.43
2023-02-08T11:34:32.922Z,9.18
2023-02-08T11:37:03.490Z,9.84
2023-02-08T11:39:40.527Z,8.52
2023-02-08T11:42:07.685Z,8.65
2023-02-08T11:44:42.065Z,9.00
2023-02-08T11:47:11.599Z,9.21
2023-02-08T11:49:41.277Z,9.80
2023-02-08T11:52:22.984Z,10.22
2023-02-08T11:54:49.391Z,10.50
2023-02-08T11:57:21.716Z,10.25
2023-02-08T11:59:50.299Z,9.80
2023-02-08T12:02:28.200Z,9.91
2023-02-08T12:04:55.567Z,10.28
2023-02-08T12:07:36.662Z,9.70
2023-02-08T12:10:14.822Z,9.97
2023-02-08T12:12:59.297Z,9.44
2023-02-08T12:15:25.843Z,9.14
2023-02-08T12:18:25.168Z,9.87
2023-02-08T12:21:05.409Z,10.11
2023-02-08T12:23:38.353Z,9.42
2023-02-08T12:26:26.058Z,9.47
2023-02-08T12:29:45.764Z,10.38
2023-02-08T12:32:16.045Z,9.60
2023-02-08T12:34:52.981Z,10.08
2023-02-08T12:38:04.460Z,10.12
2023-02-08T12:41:00.504Z,10.35
2023-02-08T12:44:02.544Z,9.90
2023-02-08T12:46:41.215Z,10.02
2023-02-08T12:49:46.745Z,11.08
2023-02-08T12:52:21.439Z,11.03
2023-02-08T12:55:15.025Z,10.90
2023-02-08T12:57:48.964Z,11.45
2023-02-08T13:00:25.478Z,11.11
2023-02-08T13:03:10.939Z,11.39
2023-02-08T13:05:50.780Z,12.27
2023-02-08T13:08:30.082Z,11.47
2023-02-08T13:11:14.087Z,10.29
2023-02-08T13:14:00.503Z,10.04
2023-02-08T13:16:37.225Z,10.50
2023-02-08T13:19:12.554Z,10.93
2023-02-08T13:21:43.751Z,10.69
2023-02-08T13:24:31.803Z,11.85
2023-02-08T13:26:58.410Z,11.93
2023-02-08T13:29:28.134Z,11.20
2023-02-08T13:32:00.702Z,11.86
2023-02-08T13:34:42.940Z,12.43
2023-02-08T13:37:27.420Z,12.33
2023-02-08T13:40:17.251Z,11.97
2023-02-08T13:42:50.642Z,12.96
2023-02-08T13:45:28.276Z,12.10
2023-02-08T13:48:00.681Z,12.40
2023-02-08T13:50:47.205Z,12.89
2023-02-08T13:53:15.322Z,13.44
2023-02-08T13:55:45.847Z,12.78
2023-02-08T13:58:15.449Z,13.00
2023-02-08T14:00:54.573Z,13.26
2023-02-08T14:03:27.343Z,12.53
2023-02-08T14:06:06.398Z,12.95
2023-02-08T14:09:15.176Z,13.32
2023-02-08T14:11:49.360Z,11.45
2023-02-08T14:14:28.979Z,11.41
2023-02-08T14:17:04.649Z,12.21
2023-02-08T14:19:42.813Z,11.90
2023-02-08T14:22:12.265Z,10.93
2023-02-08T14:24:48.014Z,10.87
2023-02-08T14:27:43.193Z,11.68
2023-02-08T14:30:34.765Z,11.88
2023-02-08T14:33:03.867Z,12.00
2023-02-08T14:35:31.968Z,12.46
2023-02-08T14:38:20.310Z,12.37
2023-02-08T14:40:54.740Z,12.38
2023-02-08T14:43:21.064Z,12.14
2023-02-08T14:45:50.446Z,11.96
2023-02-08T14:48:23.750Z,12.31
2023-02-08T14:51:06.828Z,12.79
2023-02-08T14:53:49.620Z,11.86
2023-02-08T14:56:21.931Z,12.26
2023-02-08T14:58:57.365Z,12.18
2023-02-08T15:01:45.662Z,11.63
2023-02-08T15:04:14.603Z,11.10
2023-02-08T15:07:01.630Z,10.65
2023-02-08T15:09:30.522Z,11.28
2023-02-08T15:12:05.703Z,10.90
2023-02-08T15:14:35.627Z,11.18
2023-02-08T15:17:04.528Z,10.87
2023-02-08T15:19:40.152Z,10.52
2023-02-08T15:22:25.226Z,10.22
2023-02-08T15:24:55.502Z,10.62
2023-02-08T15:27:25.929Z,10.29
2023-02-08T15:29:52.492Z,10.35
2023-02-08T15:32:22.473Z,10.29
2023-02-08T15:34:58.308Z,9.87
2023-02-08T15:37:26.040Z,10.45
2023-02-08T15:39:57.285Z,10.14
2023-02-08T15:42:32.169Z,9.97
2023-02-08T15:45:00.619Z,10.41
2023-02-08T15:47:36.116Z,10.44
2023-02-08T15:50:06.633Z,10.12
2023-02-08T15:52:36.334Z,9.89
2023-02-08T15:55:07.683Z,9.46
2023-02-08T15:57:36.028Z,9.05
2023-02-08T16:00:14.309Z,9.26
2023-02-08T16:02:41.639Z,9.01
2023-02-08T16:05:27.620Z,8.61
2023-02-08T16:07:54.861Z,8.47
2023-02-08T16:10:29.362Z,8.25
2023-02-08T16:13:02.380Z,7.96
2023-02-08T16:15:40.370Z,7.67
2023-02-08T16:18:34.148Z,7.57
2023-02-08T16:21:04.034Z,7.37
2023-02-08T16:23:38.599Z,7.16
2023-02-08T16:26:19.429Z,7.00
2023-02-08T16:28:54.579Z,6.95
2023-02-08T16:31:26.328Z,6.96
2023-02-08T16:34:13.262Z,6.93
2023-02-08T16:36:42.004Z,6.79
2023-02-08T16:39:14.711Z,6.67
2023-02-08T16:42:14.662Z,6.55
2023-02-08T16:45:01.012Z,6.52
2023-02-08T16:47:39.468Z,6.41
2023-02-08T16:50:08.465Z,6.28
2023-02-08T16:52:36.575Z,6.17
2023-02-08T16:55:03.937Z,6.11
2023-02-08T16:58:02.278Z,5.92
2023-02-08T17:00:35.102Z,6.04
2023-02-08T17:03:01.976Z,5.92
2023-02-08T17:05:36.615Z,5.92
2023-02-08T17:08:13.043Z,5.87
2023-02-08T17:10:39.622Z,5.60
2023-02-08T17:13:20.480Z,5.56
2023-02-08T17:15:49.367Z,5.45
2023-02-08T17:18:16.412Z,5.38
2023-02-08T17:20:43.886Z,5.38
2023-02-08T17:23:10.931Z,5.31
2023-02-08T17:25:37.938Z,5.21
2023-02-08T17:28:11.536Z,5.03
2023-02-08T17:30:41.868Z,5.00
2023-02-08T17:33:11.560Z,5.00
2023-02-08T17:35:38.261Z,4.93
2023-02-08T17:38:05.767Z,4.97
2023-02-08T17:40:35.161Z,4.90
2023-02-08T17:43:03.505Z,4.69
2023-02-08T17:45:30.195Z,4.65
2023-02-08T17:48:00.203Z,4.75
2023-02-08T17:50:26.813Z,4.69
2023-02-08T17:52:53.456Z,4.60
2023-02-08T17:55:20.006Z,4.48
2023-02-08T17:57:47.088Z,4.46
2023-02-08T18:00:21.861Z,4.53
2023-02-08T18:02:50.895Z,4.34
2023-02-08T18:05:27.696Z,4.29
2023-02-08T18:07:56.241Z,4.11
2023-02-08T18:10:24.413Z,4.08
2023-02-08T18:12:50.990Z,4.04
2023-02-08T18:15:21.057Z,4.05
2023-02-08T18:17:48.390Z,3.87
2023-02-08T18:20:16.400Z,3.84
2023-02-08T18:22:44.060Z,3.84
2023-02-08T18:25:13.487Z,3.74
2023-02-08T18:27:40.313Z,3.76
2023-02-08T18:30:07.486Z,3.80
2023-02-08T18:32:34.123Z,3.69
2023-02-08T18:35:03.424Z,3.63
2023-02-08T18:37:30.480Z,3.60
2023-02-08T18:39:57.230Z,3.56
2023-02-08T18:42:23.775Z,3.36
2023-02-08T18:44:50.238Z,3.35
2023-02-08T18:47:16.644Z,3.49
2023-02-08T18:49:43.125Z,3.39
2023-02-08T18:52:12.452Z,3.36
2023-02-08T18:57:38.847Z,3.23
2023-02-08T19:00:05.863Z,3.13
2023-02-08T19:02:32.345Z,3.13
2023-02-08T19:04:59.054Z,3.12
2023-02-08T19:07:25.673Z,2.95
2023-02-08T19:09:52.104Z,2.94
2023-02-08T19:12:18.926Z,3.04
2023-02-08T19:14:48.696Z,2.97
2023-02-08T19:17:15.111Z,2.99
2023-02-08T19:19:42.913Z,2.94
2023-02-08T19:22:09.897Z,2.90
2023-02-08T19:24:36.551Z,2.90
2023-02-08T19:27:03.086Z,2.73
2023-02-08T19:29:30.012Z,2.88
2023-02-08T19:31:58.591Z,2.83
2023-02-08T19:34:25.377Z,2.81
2023-02-08T19:36:53.911Z,2.67
2023-02-08T19:39:22.935Z,2.67
2023-02-08T19:41:50.056Z,2.76
2023-02-08T19:44:19.074Z,2.60
2023-02-08T19:46:54.196Z,2.68
2023-02-08T19:49:22.383Z,2.65
2023-02-08T19:51:49.296Z,2.65
2023-02-08T19:54:17.657Z,2.64
2023-02-08T19:56:44.831Z,2.50
2023-02-08T19:59:23.279Z,2.47
2023-02-08T20:01:49.892Z,2.44
2023-02-08T20:04:16.492Z,2.34
2023-02-08T20:06:44.959Z,2.44
2023-02-08T20:09:12.868Z,2.49
2023-02-08T20:11:54.957Z,2.23
2023-02-08T20:14:24.100Z,2.10
2023-02-08T20:16:50.617Z,2.20
2023-02-08T20:19:17.061Z,2.06
2023-02-08T20:21:45.244Z,1.91
2023-02-08T20:24:12.531Z,1.82
2023-02-08T20:26:41.650Z,1.78
2023-02-08T20:29:09.426Z,1.78
2023-02-08T20:31:37.722Z,1.74
2023-02-08T20:34:07.320Z,1.65
2023-02-08T20:36:39.699Z,1.57
2023-02-08T20:39:08.113Z,1.57
2023-02-08T20:41:37.246Z,1.61
2023-02-08T20:44:04.227Z,1.55
2023-02-08T20:46:34.460Z,1.58
2023-02-08T20:49:03.016Z,1.58
2023-02-08T20:51:30.321Z,1.60
2023-02-08T20:53:58.342Z,1.58
2023-02-08T20:56:28.271Z,1.54
2023-02-08T20:59:02.433Z,1.61
2023-02-08T21:01:30.727Z,1.51
2023-02-08T21:03:58.736Z,1.30
2023-02-08T21:06:34.144Z,1.19
2023-02-08T21:09:06.071Z,1.02
2023-02-08T21:11:33.300Z,1.15
2023-02-08T21:14:02.334Z,1.15
2023-02-08T21:16:29.614Z,0.97
2023-02-08T21:18:57.154Z,0.89
2023-02-08T21:21:24.728Z,0.76
2023-02-08T21:23:51.168Z,0.83
2023-02-08T21:26:20.041Z,0.64
2023-02-08T21:28:46.748Z,0.78
2023-02-08T21:31:17.372Z,0.60
2023-02-08T21:33:44.401Z,0.42
2023-02-08T21:36:14.359Z,0.51
2023-02-08T21:38:41.162Z,0.62
2023-02-08T21:41:30.939Z,0.89
2023-02-08T21:43:59.293Z,0.76
2023-02-08T21:46:27.843Z,0.60
2023-02-08T21:49:14.029Z,0.37
2023-02-08T21:51:59.387Z,0.51
2023-02-08T21:54:46.602Z,0.73
2023-02-08T21:57:19.019Z,0.51
2023-02-08T21:59:48.478Z,0.31
2023-02-08T22:02:25.417Z,0.47
2023-02-08T22:05:12.379Z,0.33
2023-02-08T22:07:56.625Z,0.09
2023-02-08T22:10:26.130Z,-0.03
2023-02-08T22:13:27.365Z,0.02
2023-02-08T22:15:56.573Z,0.21
2023-02-08T22:18:22.971Z,0.18
2023-02-08T22:20:53.368Z,0.09
2023-02-08T22:23:20.068Z,-0.11
2023-02-08T22:25:46.484Z,0.15
2023-02-08T22:28:12.900Z,-0.14
2023-02-08T22:30:39.401Z,0.04
2023-02-08T22:33:05.801Z,-0.06
2023-02-08T22:35:32.288Z,0.04
2023-02-08T22:37:58.824Z,0.00
2023-02-08T22:40:25.280Z,-0.06
2023-02-08T22:42:51.648Z,0.04
2023-02-08T22:45:18.101Z,0.03
2023-02-08T22:47:46.086Z,-0.07
2023-02-08T22:50:12.783Z,-0.18
2023-02-08T22:52:40.676Z,0.00
2023-02-08T22:55:07.729Z,0.15
2023-02-08T22:57:35.598Z,0.45
2023-02-08T23:00:03.621Z,0.45
2023-02-08T23:02:30.441Z,0.62
2023-02-08T23:04:56.903Z,0.55
2023-02-08T23:07:23.587Z,0.47
2023-02-08T23:09:52.691Z,0.48
2023-02-08T23:12:19.089Z,0.45
2023-02-08T23:14:45.534Z,0.42
2023-02-08T23:17:11.997Z,0.33
2023-02-08T23:19:40.215Z,0.20
2023-02-08T23:22:06.712Z,0.11
2023-02-08T23:24:33.836Z,0.00
2023-02-08T23:27:00.382Z,0.00
2023-02-08T23:29:27.001Z,0.18
2023-02-08T23:31:53.669Z,0.25
2023-02-08T23:34:20.094Z,0.27
2023-02-08T23:36:46.524Z,0.27
2023-02-08T23:39:13.031Z,0.03
2023-02-08T23:41:39.432Z,-0.24
2023-02-08T23:44:06.059Z,-0.14
2023-02-08T23:46:33.186Z,-0.31
2023-02-08T23:48:59.757Z,-0.24
2023-02-08T23:51:26.466Z,-0.29
2023-02-08T23:53:55.109Z,-0.29
2023-02-08T23:56:24.714Z,-0.18
2023-02-08T23:58:54.988Z,0.00
